Vliegveldwaarnemingen Nederland - (AUTO) METAR

Luchtvaartmeteorologische informatie voor operationeel gebruik en vluchtvoorbereiding is beschikbaar op www.luchtvaartmeteo.nl.

ZCZC
SA260455 EHKD     DE KOOY/DE KOOY   NLD   1 m.
METAR EHKD 260455Z AUTO 05010KT 9999 BKN350 07/05 Q1026
BLU 05010KT CAVOK=

ZCZC
SA260455 EHFD     F3-FB-1   NLD   50 m.
METAR EHFD 260455Z AUTO 03009KT 320V090 9999 NCD 07/06 Q1027=

ZCZC
SA260455 EHAM     AMSTERDAM/SCHIPHOL   NLD   -3 m.
METAR EHAM 260455Z 06009KT CAVOK 06/04 Q1026 NOSIG=

ZCZC
SA260455 EHVL     VLIELAND   NLD   10 m.
METAR EHVL 260455Z AUTO 05007KT 9000 BR NCD 04/03 Q1026 BLU=

ZCZC
SA260455 EHJR     K13-A   NLD   37 m.
METAR EHJR 260455Z NIL=

ZCZC
SA260455 EHLW     LEEUWARDEN/LEEUWARDEN   NLD   1 m.
METAR EHLW 260455Z AUTO 05004KT 0300 R23/P3000U FG OVC330 00/00 Q1026
 RED=

ZCZC
SA260455 EHDL     ARNHEM/DEELEN   NLD   48 m.
METAR EHDL 260455Z AUTO 06009KT 350V130 7000 BR OVC004 04/03 Q1025 YLO=

ZCZC
SA260455 EHGG     GRONINGEN/EELDE   NLD   5 m.
METAR EHGG 260455Z AUTO 01003KT 3800 R05/0750D BR FEW015CB 01/01
Q1026 BECMG 4000 BR=

ZCZC
SA260455 EHSC     LICHTEILAND GOEREE   NLD   22 m.
METAR EHSC 260455Z NIL=

ZCZC
SA260455 EHSA     EURO PLATFORM   NLD   19 m.
METAR EHSA 260455Z NIL=

ZCZC
SA260455 EHWO     WOENSDRECHT/WOENSDRECHT   NLD   19 m.
METAR EHWO 260455Z AUTO 07008KT 9999 OVC320 04/02 Q1024 BLU=

ZCZC
SA260455 EHRD     ROTTERDAM/THE HAGUE AIRPORT   NLD   -5 m.
METAR EHRD 260455Z AUTO 06006KT 9999 NCD 04/02 Q1025 NOSIG=

ZCZC
SA260455 EHGR     GILZE-RIJEN/GILZE-RIJEN   NLD   14 m.
METAR EHGR 260455Z AUTO 06007KT 010V090 9999 OVC300 05/03 Q1025 BLU=

ZCZC
SA260455 EHEH     EINDHOVEN/EINDHOVEN   NLD   22 m.
METAR EHEH 260455Z AUTO 04005KT 9999 FEW089 03/01 Q1024
BLU 07009KT CAVOK=

ZCZC
SA260455 EHVK     VOLKEL/VOLKEL   NLD   21 m.
METAR EHVK 260455Z AUTO 04003KT 9999 OVC350 03/02 Q1025 BLU=

ZCZC
SA260455 EHBK     MAASTRICHT/MAASTRICHT-AACHEN   NLD   114 m.
METAR EHBK 260455Z AUTO 06008KT 9999 NSC 05/03 Q1023 NOSIG=

ZCZC
SA260455 EHFZ     F16-A   NLD   43 m.
METAR EHFZ 260455Z AUTO 04012KT 9999 NCD 07/06 Q1027=

ZCZC
SA260455 EHKV     K14-FA-1C   NLD   41 m.
METAR EHKV 260455Z AUTO 05010KT 9999 NSC 08/06 Q1027=

ZCZC
SA260455 EHMG     L9-FF-1   NLD   44 m.
METAR EHMG 260455Z AUTO 05010KT 9999 NCD 07/06 Q1026=

ZCZC
SA260455 EHMA     AWG-1   NLD   40 m.
METAR EHMA 260455Z AUTO 03009KT 9999 NCD 07/05 Q1026=

ZCZC
SA260455 EHDV     D15-FA-1   NLD   42 m.
METAR EHDV 260455Z AUTO 04009KT 9999 NCD 07/04 Q1027=

ZCZC
SA260455 EHAK     A12-CPP   NLD   48 m.
METAR EHAK 260455Z AUTO 03009KT 9999 FEW021/// 07/05 Q1028=

ZCZC
SA260455 EHQE     HOORN-A   NLD   50 m.
METAR EHQE 260455Z AUTO ///15KT 9999 NSC 08/05 Q1026=

ZCZC
SA260455 EHJA     J6-A   NLD   45 m.
METAR EHJA 260455Z AUTO 05011KT 9999 NCD 07/04 Q1027=

ZCZC
SA260455 EHPG     P11-B   NLD   41 m.
METAR EHPG 260455Z AUTO 05016KT 9999 NSC 08/05 Q1026=

ZCZC
SA260455 EHHW     BUITENGAATS/BG-OHVS2      42 m.
METAR EHHW 260455Z AUTO 03006KT 9999 SCT040/// 07/05 Q1026=

ZCZC
SA260455 EHFS     VLISSINGEN AWS   NLD   8 m.
METAR EHFS 260455Z NIL=

26/03/2017 07.15 uur LT